KELK/ELK METAR and TAF weather

Enter ICAO airport designator
Station Type Date Time Source
KELK METAR 2021/08/04 19:35 UTC NOAA

KELK 041935Z AUTO 00000KT 10SM SCT055 28/15 A3016 RMK AO2 LTG DSNT NW T02840147


Station Type Date Time Source
KELK Decoded METAR 2021/08/04 19:35 UTC NOAA

Station name not available
Aug 04, 2021 - 03:35 PM EDT / 2021.08.04 1935 UTC
Wind: Calm:0
Visibility: 10 mile(s):0
Sky conditions: partly cloudy
Weather: Lightning observed
Temperature: 83.1 F (28.4 C)
Dew Point: 58.5 F (14.7 C)
Relative Humidity: 43%
Pressure (altimeter): 30.16 in. Hg (1021 hPa)
ob: KELK 041935Z AUTO 00000KT 10SM SCT055 28/15 A3016 RMK AO2 LTG DSNT NW T02840147
cycle: 19

Station Type Date Time Source
KELK TAF UTC NOAA

Error!

Example: see airport list